CheckWX is a tool to help pilots better visualize weather data.  It is not intended as a substitute for an official pre-flight weather briefing.

14:37:54 UTC

KCDR METAR
Chadron Municipal Airport
Chadron, Nebraska, USA
Current

45 mins ago

KCDR 221353Z AUTO 33007KT 10SM FEW049 OVC060 07/04 A3026 RMK AO2 SLP263 T00720039
Observed
Apr-22 @ 13:53 UTC
Wind
  • 330° at 7 KTS
Visibility
10 SM
Flight Rules
VFR
Cloud Levels
  • Few at 4,900' AGL
  • Overcast at 6,000' AGL
Temperature
C / 45°F
Dewpoint
C / 39°F
Humidity
81%
Altimeter
30.26" Hg
Pressure
1024.72 hPa
Previous

2 hours ago

KCDR 221253Z AUTO 33006KT 10SM OVC043 06/03 A3026 RMK AO2 SLP261 T00610033
Observed
Apr-22 @ 12:53 UTC
Wind
  • 330° at 6 KTS
Visibility
10 SM
Flight Rules
VFR
Cloud Levels
  • Overcast at 4,300' AGL
Temperature
C / 43°F
Dewpoint
C / 37°F
Humidity
81%
Altimeter
30.26" Hg
Pressure
1024.72 hPa
Previous

3 hours ago

KCDR 221153Z AUTO 34003KT 10SM OVC050 06/03 A3023 RMK AO2 SLP253 60000 70040 T00560033 10061 20050 51012
Observed
Apr-22 @ 11:53 UTC
Wind
  • 340° at 3 KTS
Visibility
10 SM
Flight Rules
VFR
Cloud Levels
  • Overcast at 5,000' AGL
Temperature
C / 43°F
Dewpoint
C / 37°F
Humidity
81%
Altimeter
30.23" Hg
Pressure
1023.72 hPa
24 Hour Rain
0.4"